sensor_id;sensor_type;location;lat;lon;timestamp;P1;durP1;ratioP1;P2;durP2;ratioP2
15077;SDS011;7638;49.760;8.646;2023-11-22T00:01:02;2.03;;;1.83;;
15077;SDS011;7638;49.760;8.646;2023-11-22T00:03:28;1.50;;;1.40;;
15077;SDS011;7638;49.760;8.646;2023-11-22T00:05:54;2.90;;;1.77;;
15077;SDS011;7638;49.760;8.646;2023-11-22T00:08:20;2.07;;;1.77;;
15077;SDS011;7638;49.760;8.646;2023-11-22T00:10:46;2.03;;;1.83;;
15077;SDS011;7638;49.760;8.646;2023-11-22T00:13:12;2.20;;;1.87;;
15077;SDS011;7638;49.760;8.646;2023-11-22T00:15:38;2.90;;;1.90;;
15077;SDS011;7638;49.760;8.646;2023-11-22T00:18:04;3.30;;;1.87;;
15077;SDS011;7638;49.760;8.646;2023-11-22T00:20:30;1.83;;;1.63;;
15077;SDS011;7638;49.760;8.646;2023-11-22T00:22:56;3.77;;;2.13;;
15077;SDS011;7638;49.760;8.646;2023-11-22T00:25:22;3.70;;;2.07;;
15077;SDS011;7638;49.760;8.646;2023-11-22T00:27:49;2.80;;;1.70;;
15077;SDS011;7638;49.760;8.646;2023-11-22T00:30:15;5.20;;;2.17;;
15077;SDS011;7638;49.760;8.646;2023-11-22T00:32:41;3.03;;;2.27;;
15077;SDS011;7638;49.760;8.646;2023-11-22T00:35:07;2.13;;;1.97;;
15077;SDS011;7638;49.760;8.646;2023-11-22T00:37:34;1.63;;;1.53;;
15077;SDS011;7638;49.760;8.646;2023-11-22T00:40:00;3.30;;;2.13;;
15077;SDS011;7638;49.760;8.646;2023-11-22T00:42:32;4.60;;;2.03;;
15077;SDS011;7638;49.760;8.646;2023-11-22T00:44:58;4.27;;;1.73;;
15077;SDS011;7638;49.760;8.646;2023-11-22T00:47:24;2.87;;;2.17;;
15077;SDS011;7638;49.760;8.646;2023-11-22T00:49:50;3.23;;;2.20;;
15077;SDS011;7638;49.760;8.646;2023-11-22T00:52:16;2.40;;;2.20;;
15077;SDS011;7638;49.760;8.646;2023-11-22T00:54:42;2.93;;;2.30;;
15077;SDS011;7638;49.760;8.646;2023-11-22T00:57:08;2.27;;;1.83;;
15077;SDS011;7638;49.760;8.646;2023-11-22T00:59:34;2.33;;;2.13;;
15077;SDS011;7638;49.760;8.646;2023-11-22T01:02:00;5.70;;;2.30;;
15077;SDS011;7638;49.760;8.646;2023-11-22T01:04:30;2.20;;;1.80;;
15077;SDS011;7638;49.760;8.646;2023-11-22T01:06:59;2.80;;;2.20;;
15077;SDS011;7638;49.760;8.646;2023-11-22T01:09:25;2.27;;;1.63;;
15077;SDS011;7638;49.760;8.646;2023-11-22T01:11:53;3.07;;;1.57;;
15077;SDS011;7638;49.760;8.646;2023-11-22T01:14:19;2.13;;;1.63;;
15077;SDS011;7638;49.760;8.646;2023-11-22T01:16:46;2.23;;;1.80;;
15077;SDS011;7638;49.760;8.646;2023-11-22T01:19:13;2.50;;;1.63;;
15077;SDS011;7638;49.760;8.646;2023-11-22T01:21:39;1.83;;;1.30;;
15077;SDS011;7638;49.760;8.646;2023-11-22T01:24:05;1.80;;;1.27;;
15077;SDS011;7638;49.760;8.646;2023-11-22T01:26:31;2.63;;;1.27;;
15077;SDS011;7638;49.760;8.646;2023-11-22T01:28:57;1.37;;;1.27;;
15077;SDS011;7638;49.760;8.646;2023-11-22T01:31:25;2.07;;;1.47;;
15077;SDS011;7638;49.760;8.646;2023-11-22T01:33:52;3.13;;;1.60;;
15077;SDS011;7638;49.760;8.646;2023-11-22T01:36:18;1.30;;;1.20;;
15077;SDS011;7638;49.760;8.646;2023-11-22T01:38:44;1.73;;;1.17;;
15077;SDS011;7638;49.760;8.646;2023-11-22T01:41:11;3.87;;;1.77;;
15077;SDS011;7638;49.760;8.646;2023-11-22T01:43:40;1.60;;;1.17;;
15077;SDS011;7638;49.760;8.646;2023-11-22T01:46:10;1.30;;;1.17;;
15077;SDS011;7638;49.760;8.646;2023-11-22T01:48:41;3.53;;;1.70;;
15077;SDS011;7638;49.760;8.646;2023-11-22T01:51:07;2.23;;;1.33;;
15077;SDS011;7638;49.760;8.646;2023-11-22T01:53:33;1.30;;;1.20;;
15077;SDS011;7638;49.760;8.646;2023-11-22T01:55:59;2.07;;;1.30;;
15077;SDS011;7638;49.760;8.646;2023-11-22T01:58:26;2.20;;;1.70;;
15077;SDS011;7638;49.760;8.646;2023-11-22T02:00:52;1.90;;;1.63;;
15077;SDS011;7638;49.760;8.646;2023-11-22T02:03:18;1.37;;;1.27;;
15077;SDS011;7638;49.760;8.646;2023-11-22T02:05:44;2.83;;;1.50;;
15077;SDS011;7638;49.760;8.646;2023-11-22T02:08:11;1.30;;;1.20;;
15077;SDS011;7638;49.760;8.646;2023-11-22T02:10:37;1.70;;;1.30;;
15077;SDS011;7638;49.760;8.646;2023-11-22T02:13:04;1.43;;;1.33;;
15077;SDS011;7638;49.760;8.646;2023-11-22T02:15:32;2.10;;;1.13;;
15077;SDS011;7638;49.760;8.646;2023-11-22T02:17:58;2.67;;;2.00;;
15077;SDS011;7638;49.760;8.646;2023-11-22T02:20:24;1.93;;;1.67;;
15077;SDS011;7638;49.760;8.646;2023-11-22T02:22:50;1.93;;;1.27;;
15077;SDS011;7638;49.760;8.646;2023-11-22T02:25:18;3.53;;;1.50;;
15077;SDS011;7638;49.760;8.646;2023-11-22T02:27:44;1.83;;;1.53;;
15077;SDS011;7638;49.760;8.646;2023-11-22T02:30:10;2.13;;;1.80;;
15077;SDS011;7638;49.760;8.646;2023-11-22T02:32:36;2.03;;;1.80;;
15077;SDS011;7638;49.760;8.646;2023-11-22T02:35:04;3.33;;;1.30;;
15077;SDS011;7638;49.760;8.646;2023-11-22T02:37:33;2.40;;;1.50;;
15077;SDS011;7638;49.760;8.646;2023-11-22T02:40:02;1.53;;;1.30;;
15077;SDS011;7638;49.760;8.646;2023-11-22T02:42:29;1.70;;;1.37;;
15077;SDS011;7638;49.760;8.646;2023-11-22T02:44:55;2.53;;;1.67;;
15077;SDS011;7638;49.760;8.646;2023-11-22T02:47:22;3.33;;;1.60;;
15077;SDS011;7638;49.760;8.646;2023-11-22T02:49:48;3.07;;;1.90;;
15077;SDS011;7638;49.760;8.646;2023-11-22T02:52:14;1.77;;;1.67;;
15077;SDS011;7638;49.760;8.646;2023-11-22T02:54:43;3.37;;;2.20;;
15077;SDS011;7638;49.760;8.646;2023-11-22T02:57:13;2.57;;;1.70;;
15077;SDS011;7638;49.760;8.646;2023-11-22T02:59:42;3.43;;;2.13;;
15077;SDS011;7638;49.760;8.646;2023-11-22T03:02:09;2.03;;;1.53;;
15077;SDS011;7638;49.760;8.646;2023-11-22T03:04:35;1.73;;;1.40;;
15077;SDS011;7638;49.760;8.646;2023-11-22T03:07:01;6.20;;;2.17;;
15077;SDS011;7638;49.760;8.646;2023-11-22T03:09:27;2.03;;;1.67;;
15077;SDS011;7638;49.760;8.646;2023-11-22T03:11:53;2.23;;;1.77;;
15077;SDS011;7638;49.760;8.646;2023-11-22T03:14:19;2.57;;;1.90;;
15077;SDS011;7638;49.760;8.646;2023-11-22T03:16:45;4.27;;;1.50;;
15077;SDS011;7638;49.760;8.646;2023-11-22T03:19:11;3.47;;;1.77;;
15077;SDS011;7638;49.760;8.646;2023-11-22T03:21:39;2.10;;;1.87;;
15077;SDS011;7638;49.760;8.646;2023-11-22T03:24:06;3.20;;;1.80;;
15077;SDS011;7638;49.760;8.646;2023-11-22T03:26:33;2.60;;;1.60;;
15077;SDS011;7638;49.760;8.646;2023-11-22T03:28:59;4.17;;;2.53;;
15077;SDS011;7638;49.760;8.646;2023-11-22T03:31:25;2.73;;;2.00;;
15077;SDS011;7638;49.760;8.646;2023-11-22T03:33:51;2.77;;;1.47;;
15077;SDS011;7638;49.760;8.646;2023-11-22T03:36:17;3.07;;;1.73;;
15077;SDS011;7638;49.760;8.646;2023-11-22T03:38:43;2.33;;;2.00;;
15077;SDS011;7638;49.760;8.646;2023-11-22T03:41:09;2.47;;;1.93;;
15077;SDS011;7638;49.760;8.646;2023-11-22T03:43:35;2.20;;;1.80;;
15077;SDS011;7638;49.760;8.646;2023-11-22T03:46:01;1.97;;;1.40;;
15077;SDS011;7638;49.760;8.646;2023-11-22T03:48:27;3.33;;;1.73;;
15077;SDS011;7638;49.760;8.646;2023-11-22T03:50:54;2.90;;;1.57;;
15077;SDS011;7638;49.760;8.646;2023-11-22T03:53:20;2.23;;;1.77;;
15077;SDS011;7638;49.760;8.646;2023-11-22T03:55:46;1.73;;;1.33;;
15077;SDS011;7638;49.760;8.646;2023-11-22T03:58:13;1.80;;;1.40;;
15077;SDS011;7638;49.760;8.646;2023-11-22T04:00:39;2.03;;;1.53;;
15077;SDS011;7638;49.760;8.646;2023-11-22T04:03:11;1.70;;;1.60;;
15077;SDS011;7638;49.760;8.646;2023-11-22T04:05:37;3.07;;;1.87;;
15077;SDS011;7638;49.760;8.646;2023-11-22T04:08:03;1.53;;;1.43;;
15077;SDS011;7638;49.760;8.646;2023-11-22T04:10:29;3.07;;;1.67;;
15077;SDS011;7638;49.760;8.646;2023-11-22T04:12:55;2.40;;;1.70;;
15077;SDS011;7638;49.760;8.646;2023-11-22T04:15:22;2.73;;;1.57;;
15077;SDS011;7638;49.760;8.646;2023-11-22T04:17:48;2.47;;;1.70;;
15077;SDS011;7638;49.760;8.646;2023-11-22T04:20:14;1.67;;;1.57;;
15077;SDS011;7638;49.760;8.646;2023-11-22T04:22:40;2.40;;;1.80;;
15077;SDS011;7638;49.760;8.646;2023-11-22T04:25:07;1.83;;;1.50;;
15077;SDS011;7638;49.760;8.646;2023-11-22T04:27:38;2.50;;;1.90;;
15077;SDS011;7638;49.760;8.646;2023-11-22T04:30:05;2.27;;;1.70;;
15077;SDS011;7638;49.760;8.646;2023-11-22T04:32:33;2.93;;;1.63;;
15077;SDS011;7638;49.760;8.646;2023-11-22T04:35:01;1.60;;;1.50;;
15077;SDS011;7638;49.760;8.646;2023-11-22T04:37:28;2.10;;;1.90;;
15077;SDS011;7638;49.760;8.646;2023-11-22T04:39:56;1.80;;;1.67;;
15077;SDS011;7638;49.760;8.646;2023-11-22T04:42:22;1.60;;;1.40;;
15077;SDS011;7638;49.760;8.646;2023-11-22T04:44:48;2.90;;;2.17;;
15077;SDS011;7638;49.760;8.646;2023-11-22T04:47:14;1.93;;;1.53;;
15077;SDS011;7638;49.760;8.646;2023-11-22T04:49:40;2.70;;;1.60;;
15077;SDS011;7638;49.760;8.646;2023-11-22T04:52:06;1.73;;;1.50;;
15077;SDS011;7638;49.760;8.646;2023-11-22T04:54:32;2.83;;;2.03;;
15077;SDS011;7638;49.760;8.646;2023-11-22T04:56:59;2.63;;;2.00;;
15077;SDS011;7638;49.760;8.646;2023-11-22T04:59:25;3.53;;;2.63;;
15077;SDS011;7638;49.760;8.646;2023-11-22T05:01:51;2.43;;;1.80;;
15077;SDS011;7638;49.760;8.646;2023-11-22T05:04:18;4.47;;;2.60;;
15077;SDS011;7638;49.760;8.646;2023-11-22T05:06:44;5.70;;;2.00;;
15077;SDS011;7638;49.760;8.646;2023-11-22T05:09:11;3.27;;;2.50;;
15077;SDS011;7638;49.760;8.646;2023-11-22T05:11:38;5.47;;;3.13;;
15077;SDS011;7638;49.760;8.646;2023-11-22T05:14:06;4.20;;;3.20;;
15077;SDS011;7638;49.760;8.646;2023-11-22T05:16:32;4.97;;;3.13;;
15077;SDS011;7638;49.760;8.646;2023-11-22T05:18:58;4.97;;;2.87;;
15077;SDS011;7638;49.760;8.646;2023-11-22T05:21:24;5.00;;;2.40;;
15077;SDS011;7638;49.760;8.646;2023-11-22T05:23:51;4.10;;;2.70;;
15077;SDS011;7638;49.760;8.646;2023-11-22T05:26:19;5.97;;;3.07;;
15077;SDS011;7638;49.760;8.646;2023-11-22T05:28:46;4.90;;;3.30;;
15077;SDS011;7638;49.760;8.646;2023-11-22T05:31:12;3.93;;;2.97;;
15077;SDS011;7638;49.760;8.646;2023-11-22T05:33:39;3.97;;;2.87;;
15077;SDS011;7638;49.760;8.646;2023-11-22T05:36:05;3.57;;;2.60;;
15077;SDS011;7638;49.760;8.646;2023-11-22T05:38:31;3.40;;;2.40;;
15077;SDS011;7638;49.760;8.646;2023-11-22T05:41:00;6.27;;;2.83;;
15077;SDS011;7638;49.760;8.646;2023-11-22T05:43:26;3.20;;;2.60;;
15077;SDS011;7638;49.760;8.646;2023-11-22T05:45:53;3.73;;;2.93;;
15077;SDS011;7638;49.760;8.646;2023-11-22T05:48:19;8.13;;;3.10;;
15077;SDS011;7638;49.760;8.646;2023-11-22T05:50:45;3.90;;;2.73;;
15077;SDS011;7638;49.760;8.646;2023-11-22T05:53:12;8.17;;;2.53;;
15077;SDS011;7638;49.760;8.646;2023-11-22T05:55:44;3.93;;;2.73;;
15077;SDS011;7638;49.760;8.646;2023-11-22T05:58:10;3.60;;;2.97;;
15077;SDS011;7638;49.760;8.646;2023-11-22T06:00:36;4.40;;;2.80;;
15077;SDS011;7638;49.760;8.646;2023-11-22T06:03:03;4.23;;;3.20;;
15077;SDS011;7638;49.760;8.646;2023-11-22T06:05:29;3.03;;;2.57;;
15077;SDS011;7638;49.760;8.646;2023-11-22T06:07:55;3.40;;;2.37;;
15077;SDS011;7638;49.760;8.646;2023-11-22T06:10:21;2.53;;;2.03;;
15077;SDS011;7638;49.760;8.646;2023-11-22T06:12:48;8.50;;;2.90;;
15077;SDS011;7638;49.760;8.646;2023-11-22T06:15:14;3.30;;;2.47;;
15077;SDS011;7638;49.760;8.646;2023-11-22T06:17:40;3.63;;;2.57;;
15077;SDS011;7638;49.760;8.646;2023-11-22T06:20:06;2.80;;;2.30;;
15077;SDS011;7638;49.760;8.646;2023-11-22T06:22:32;3.67;;;2.50;;
15077;SDS011;7638;49.760;8.646;2023-11-22T06:24:58;3.60;;;2.43;;
15077;SDS011;7638;49.760;8.646;2023-11-22T06:27:24;4.60;;;2.50;;
15077;SDS011;7638;49.760;8.646;2023-11-22T06:29:50;3.40;;;2.40;;
15077;SDS011;7638;49.760;8.646;2023-11-22T06:32:16;4.07;;;2.40;;
15077;SDS011;7638;49.760;8.646;2023-11-22T06:34:43;4.03;;;2.33;;
15077;SDS011;7638;49.760;8.646;2023-11-22T06:37:09;3.00;;;2.33;;
15077;SDS011;7638;49.760;8.646;2023-11-22T06:39:35;3.07;;;2.40;;
15077;SDS011;7638;49.760;8.646;2023-11-22T06:42:02;3.13;;;1.87;;
15077;SDS011;7638;49.760;8.646;2023-11-22T06:44:28;2.73;;;2.13;;
15077;SDS011;7638;49.760;8.646;2023-11-22T06:46:54;4.20;;;2.00;;
15077;SDS011;7638;49.760;8.646;2023-11-22T06:49:20;3.13;;;2.30;;
15077;SDS011;7638;49.760;8.646;2023-11-22T06:51:46;3.00;;;2.40;;
15077;SDS011;7638;49.760;8.646;2023-11-22T06:54:12;2.90;;;2.17;;
15077;SDS011;7638;49.760;8.646;2023-11-22T06:56:38;2.30;;;2.10;;
15077;SDS011;7638;49.760;8.646;2023-11-22T06:59:04;2.97;;;2.23;;
15077;SDS011;7638;49.760;8.646;2023-11-22T07:01:30;3.57;;;2.43;;
15077;SDS011;7638;49.760;8.646;2023-11-22T07:03:56;3.17;;;2.17;;
15077;SDS011;7638;49.760;8.646;2023-11-22T07:06:22;2.00;;;1.67;;
15077;SDS011;7638;49.760;8.646;2023-11-22T07:08:48;3.53;;;2.17;;
15077;SDS011;7638;49.760;8.646;2023-11-22T07:11:21;5.47;;;2.40;;
15077;SDS011;7638;49.760;8.646;2023-11-22T07:13:48;4.80;;;2.10;;
15077;SDS011;7638;49.760;8.646;2023-11-22T07:16:14;7.30;;;2.30;;
15077;SDS011;7638;49.760;8.646;2023-11-22T07:18:40;3.23;;;2.13;;
15077;SDS011;7638;49.760;8.646;2023-11-22T07:21:06;4.13;;;2.60;;
15077;SDS011;7638;49.760;8.646;2023-11-22T07:23:32;2.53;;;1.90;;
15077;SDS011;7638;49.760;8.646;2023-11-22T07:25:58;2.97;;;1.80;;
15077;SDS011;7638;49.760;8.646;2023-11-22T07:28:24;2.67;;;2.10;;
15077;SDS011;7638;49.760;8.646;2023-11-22T07:30:51;2.77;;;2.33;;
15077;SDS011;7638;49.760;8.646;2023-11-22T07:33:17;4.00;;;2.43;;
15077;SDS011;7638;49.760;8.646;2023-11-22T07:35:45;5.27;;;2.77;;
15077;SDS011;7638;49.760;8.646;2023-11-22T07:38:11;3.40;;;2.00;;
15077;SDS011;7638;49.760;8.646;2023-11-22T07:40:37;2.63;;;1.90;;
15077;SDS011;7638;49.760;8.646;2023-11-22T07:43:03;3.13;;;2.30;;
15077;SDS011;7638;49.760;8.646;2023-11-22T07:45:30;3.20;;;2.57;;
15077;SDS011;7638;49.760;8.646;2023-11-22T07:47:57;3.47;;;2.30;;
15077;SDS011;7638;49.760;8.646;2023-11-22T07:50:25;3.93;;;2.43;;
15077;SDS011;7638;49.760;8.646;2023-11-22T07:52:51;5.27;;;2.87;;
15077;SDS011;7638;49.760;8.646;2023-11-22T07:55:17;5.10;;;2.67;;
15077;SDS011;7638;49.760;8.646;2023-11-22T07:57:47;3.10;;;2.13;;
15077;SDS011;7638;49.760;8.646;2023-11-22T08:00:14;3.97;;;2.47;;
15077;SDS011;7638;49.760;8.646;2023-11-22T08:02:44;2.70;;;2.27;;
15077;SDS011;7638;49.760;8.646;2023-11-22T08:05:10;3.80;;;2.33;;
15077;SDS011;7638;49.760;8.646;2023-11-22T08:07:37;3.63;;;2.17;;
15077;SDS011;7638;49.760;8.646;2023-11-22T08:10:07;2.80;;;2.10;;
15077;SDS011;7638;49.760;8.646;2023-11-22T08:12:44;2.73;;;2.27;;
15077;SDS011;7638;49.760;8.646;2023-11-22T08:15:10;3.20;;;2.17;;
15077;SDS011;7638;49.760;8.646;2023-11-22T08:17:40;2.47;;;1.80;;
15077;SDS011;7638;49.760;8.646;2023-11-22T08:20:06;4.33;;;2.20;;
15077;SDS011;7638;49.760;8.646;2023-11-22T08:22:38;2.97;;;1.97;;
15077;SDS011;7638;49.760;8.646;2023-11-22T08:25:06;6.03;;;2.70;;
15077;SDS011;7638;49.760;8.646;2023-11-22T08:27:33;3.40;;;2.27;;
15077;SDS011;7638;49.760;8.646;2023-11-22T08:29:59;2.53;;;1.80;;
15077;SDS011;7638;49.760;8.646;2023-11-22T08:32:30;2.87;;;2.00;;
15077;SDS011;7638;49.760;8.646;2023-11-22T08:34:56;4.07;;;2.20;;
15077;SDS011;7638;49.760;8.646;2023-11-22T08:37:23;5.57;;;2.50;;
15077;SDS011;7638;49.760;8.646;2023-11-22T08:39:49;4.43;;;2.67;;
15077;SDS011;7638;49.760;8.646;2023-11-22T08:42:15;14.67;;;2.93;;
15077;SDS011;7638;49.760;8.646;2023-11-22T08:44:41;3.17;;;1.90;;
15077;SDS011;7638;49.760;8.646;2023-11-22T08:47:07;3.27;;;2.13;;
15077;SDS011;7638;49.760;8.646;2023-11-22T08:49:34;4.73;;;2.70;;
15077;SDS011;7638;49.760;8.646;2023-11-22T08:52:00;4.53;;;1.97;;
15077;SDS011;7638;49.760;8.646;2023-11-22T08:54:28;2.67;;;2.00;;
15077;SDS011;7638;49.760;8.646;2023-11-22T08:56:55;4.03;;;2.20;;
15077;SDS011;7638;49.760;8.646;2023-11-22T08:59:21;3.30;;;2.13;;
15077;SDS011;7638;49.760;8.646;2023-11-22T09:01:47;2.53;;;2.20;;
15077;SDS011;7638;49.760;8.646;2023-11-22T09:04:13;2.90;;;1.97;;
15077;SDS011;7638;49.760;8.646;2023-11-22T09:06:40;4.83;;;2.27;;
15077;SDS011;7638;49.760;8.646;2023-11-22T09:09:06;3.43;;;2.20;;
15077;SDS011;7638;49.760;8.646;2023-11-22T09:11:32;2.23;;;2.00;;
15077;SDS011;7638;49.760;8.646;2023-11-22T09:13:59;4.20;;;1.83;;
15077;SDS011;7638;49.760;8.646;2023-11-22T09:16:34;3.53;;;1.90;;
15077;SDS011;7638;49.760;8.646;2023-11-22T09:19:00;2.77;;;2.10;;
15077;SDS011;7638;49.760;8.646;2023-11-22T09:21:27;2.40;;;2.07;;
15077;SDS011;7638;49.760;8.646;2023-11-22T09:23:54;3.33;;;2.00;;
15077;SDS011;7638;49.760;8.646;2023-11-22T09:26:20;5.03;;;2.40;;
15077;SDS011;7638;49.760;8.646;2023-11-22T09:28:46;4.17;;;2.57;;
15077;SDS011;7638;49.760;8.646;2023-11-22T09:31:12;3.47;;;2.40;;
15077;SDS011;7638;49.760;8.646;2023-11-22T09:33:42;2.83;;;2.07;;
15077;SDS011;7638;49.760;8.646;2023-11-22T09:36:09;3.10;;;2.30;;
15077;SDS011;7638;49.760;8.646;2023-11-22T09:38:35;2.73;;;1.83;;
15077;SDS011;7638;49.760;8.646;2023-11-22T09:41:02;2.67;;;2.03;;
15077;SDS011;7638;49.760;8.646;2023-11-22T09:43:28;2.90;;;1.97;;
15077;SDS011;7638;49.760;8.646;2023-11-22T09:45:55;3.83;;;2.70;;
15077;SDS011;7638;49.760;8.646;2023-11-22T09:48:23;3.23;;;2.63;;
15077;SDS011;7638;49.760;8.646;2023-11-22T09:53:40;3.20;;;2.33;;
15077;SDS011;7638;49.760;8.646;2023-11-22T09:56:07;2.83;;;2.07;;
15077;SDS011;7638;49.760;8.646;2023-11-22T09:58:34;2.97;;;2.03;;
15077;SDS011;7638;49.760;8.646;2023-11-22T10:01:01;1.97;;;1.83;;
15077;SDS011;7638;49.760;8.646;2023-11-22T10:03:28;3.20;;;2.33;;
15077;SDS011;7638;49.760;8.646;2023-11-22T10:05:56;4.37;;;2.90;;
15077;SDS011;7638;49.760;8.646;2023-11-22T10:08:26;4.37;;;2.03;;
15077;SDS011;7638;49.760;8.646;2023-11-22T10:10:55;5.20;;;1.83;;
15077;SDS011;7638;49.760;8.646;2023-11-22T10:13:21;2.53;;;2.07;;
15077;SDS011;7638;49.760;8.646;2023-11-22T10:15:48;3.37;;;2.33;;
15077;SDS011;7638;49.760;8.646;2023-11-22T10:18:14;4.33;;;2.23;;
15077;SDS011;7638;49.760;8.646;2023-11-22T10:23:19;2.73;;;2.30;;
15077;SDS011;7638;49.760;8.646;2023-11-22T10:25:50;2.90;;;2.20;;
15077;SDS011;7638;49.760;8.646;2023-11-22T10:28:17;4.40;;;2.67;;
15077;SDS011;7638;49.760;8.646;2023-11-22T10:30:45;2.90;;;2.27;;
15077;SDS011;7638;49.760;8.646;2023-11-22T10:33:11;3.30;;;2.20;;
15077;SDS011;7638;49.760;8.646;2023-11-22T10:35:44;3.50;;;2.20;;
15077;SDS011;7638;49.760;8.646;2023-11-22T10:38:10;3.80;;;2.20;;
15077;SDS011;7638;49.760;8.646;2023-11-22T10:40:36;2.87;;;2.23;;
15077;SDS011;7638;49.760;8.646;2023-11-22T10:43:03;4.57;;;2.57;;
15077;SDS011;7638;49.760;8.646;2023-11-22T10:45:29;2.10;;;1.90;;
15077;SDS011;7638;49.760;8.646;2023-11-22T10:47:59;3.53;;;2.37;;
15077;SDS011;7638;49.760;8.646;2023-11-22T10:50:26;4.00;;;2.70;;
15077;SDS011;7638;49.760;8.646;2023-11-22T10:52:53;2.73;;;2.20;;
15077;SDS011;7638;49.760;8.646;2023-11-22T10:55:24;3.90;;;2.00;;
15077;SDS011;7638;49.760;8.646;2023-11-22T10:57:52;4.73;;;2.53;;
15077;SDS011;7638;49.760;8.646;2023-11-22T11:00:20;2.10;;;1.90;;
15077;SDS011;7638;49.760;8.646;2023-11-22T11:02:54;2.33;;;2.13;;
15077;SDS011;7638;49.760;8.646;2023-11-22T11:05:24;3.83;;;2.43;;
15077;SDS011;7638;49.760;8.646;2023-11-22T11:08:11;2.73;;;2.17;;
15077;SDS011;7638;49.760;8.646;2023-11-22T11:10:44;2.90;;;2.33;;
15077;SDS011;7638;49.760;8.646;2023-11-22T11:13:10;7.10;;;2.17;;
15077;SDS011;7638;49.760;8.646;2023-11-22T11:15:38;4.00;;;2.17;;
15077;SDS011;7638;49.760;8.646;2023-11-22T11:18:05;3.50;;;2.20;;
15077;SDS011;7638;49.760;8.646;2023-11-22T11:20:32;3.23;;;2.37;;
15077;SDS011;7638;49.760;8.646;2023-11-22T11:23:01;2.90;;;2.10;;
15077;SDS011;7638;49.760;8.646;2023-11-22T11:25:27;3.40;;;2.50;;
15077;SDS011;7638;49.760;8.646;2023-11-22T11:27:57;2.43;;;2.13;;
15077;SDS011;7638;49.760;8.646;2023-11-22T11:32:58;2.73;;;1.90;;
15077;SDS011;7638;49.760;8.646;2023-11-22T11:35:37;3.23;;;2.40;;
15077;SDS011;7638;49.760;8.646;2023-11-22T11:38:03;2.83;;;2.23;;
15077;SDS011;7638;49.760;8.646;2023-11-22T11:40:33;2.27;;;1.63;;
15077;SDS011;7638;49.760;8.646;2023-11-22T11:42:59;3.43;;;1.93;;
15077;SDS011;7638;49.760;8.646;2023-11-22T11:45:26;2.93;;;1.97;;
15077;SDS011;7638;49.760;8.646;2023-11-22T11:47:53;2.53;;;2.20;;
15077;SDS011;7638;49.760;8.646;2023-11-22T11:50:22;4.77;;;2.37;;
15077;SDS011;7638;49.760;8.646;2023-11-22T11:52:48;3.50;;;2.10;;
15077;SDS011;7638;49.760;8.646;2023-11-22T11:55:14;3.47;;;2.23;;
15077;SDS011;7638;49.760;8.646;2023-11-22T11:57:40;2.60;;;2.03;;
15077;SDS011;7638;49.760;8.646;2023-11-22T12:00:07;3.63;;;2.47;;
15077;SDS011;7638;49.760;8.646;2023-11-22T12:02:34;3.10;;;2.17;;
15077;SDS011;7638;49.760;8.646;2023-11-22T12:05:00;8.00;;;2.60;;
15077;SDS011;7638;49.760;8.646;2023-11-22T12:07:33;9.03;;;2.70;;
15077;SDS011;7638;49.760;8.646;2023-11-22T12:09:59;4.93;;;2.87;;
15077;SDS011;7638;49.760;8.646;2023-11-22T12:12:25;4.87;;;2.10;;
15077;SDS011;7638;49.760;8.646;2023-11-22T12:14:52;3.47;;;2.20;;
15077;SDS011;7638;49.760;8.646;2023-11-22T12:17:19;3.67;;;2.77;;
15077;SDS011;7638;49.760;8.646;2023-11-22T12:19:45;2.90;;;2.50;;
15077;SDS011;7638;49.760;8.646;2023-11-22T12:22:11;3.20;;;2.63;;
15077;SDS011;7638;49.760;8.646;2023-11-22T12:24:37;3.23;;;2.33;;
15077;SDS011;7638;49.760;8.646;2023-11-22T12:27:04;2.50;;;2.30;;
15077;SDS011;7638;49.760;8.646;2023-11-22T12:29:36;6.20;;;1.90;;
15077;SDS011;7638;49.760;8.646;2023-11-22T12:32:02;3.47;;;2.73;;
15077;SDS011;7638;49.760;8.646;2023-11-22T12:34:28;4.87;;;3.27;;
15077;SDS011;7638;49.760;8.646;2023-11-22T12:36:55;4.23;;;2.70;;
15077;SDS011;7638;49.760;8.646;2023-11-22T12:39:21;3.20;;;2.50;;
15077;SDS011;7638;49.760;8.646;2023-11-22T12:41:49;3.50;;;2.27;;
15077;SDS011;7638;49.760;8.646;2023-11-22T12:44:18;3.80;;;2.50;;
15077;SDS011;7638;49.760;8.646;2023-11-22T12:49:24;3.90;;;2.30;;
15077;SDS011;7638;49.760;8.646;2023-11-22T12:51:54;2.90;;;2.47;;
15077;SDS011;7638;49.760;8.646;2023-11-22T12:54:20;4.63;;;2.70;;
15077;SDS011;7638;49.760;8.646;2023-11-22T12:56:47;3.37;;;2.50;;
15077;SDS011;7638;49.760;8.646;2023-11-22T12:59:14;4.07;;;2.47;;
15077;SDS011;7638;49.760;8.646;2023-11-22T13:01:40;3.23;;;2.40;;
15077;SDS011;7638;49.760;8.646;2023-11-22T13:04:06;5.43;;;2.20;;
15077;SDS011;7638;49.760;8.646;2023-11-22T13:06:33;4.07;;;2.67;;
15077;SDS011;7638;49.760;8.646;2023-11-22T13:08:59;2.77;;;2.10;;
15077;SDS011;7638;49.760;8.646;2023-11-22T13:11:25;2.83;;;2.47;;
15077;SDS011;7638;49.760;8.646;2023-11-22T13:13:51;2.20;;;1.97;;
15077;SDS011;7638;49.760;8.646;2023-11-22T13:16:17;2.37;;;2.03;;
15077;SDS011;7638;49.760;8.646;2023-11-22T13:18:43;4.33;;;2.40;;
15077;SDS011;7638;49.760;8.646;2023-11-22T13:21:09;2.23;;;1.93;;
15077;SDS011;7638;49.760;8.646;2023-11-22T13:23:36;3.13;;;2.40;;
15077;SDS011;7638;49.760;8.646;2023-11-22T13:26:02;3.43;;;2.50;;
15077;SDS011;7638;49.760;8.646;2023-11-22T13:28:28;3.43;;;2.10;;
15077;SDS011;7638;49.760;8.646;2023-11-22T13:30:54;5.57;;;2.53;;
15077;SDS011;7638;49.760;8.646;2023-11-22T13:33:20;3.50;;;2.50;;
15077;SDS011;7638;49.760;8.646;2023-11-22T13:35:46;2.73;;;2.47;;
15077;SDS011;7638;49.760;8.646;2023-11-22T13:38:12;4.17;;;2.70;;
15077;SDS011;7638;49.760;8.646;2023-11-22T13:40:41;3.60;;;2.30;;
15077;SDS011;7638;49.760;8.646;2023-11-22T13:43:10;4.70;;;2.67;;
15077;SDS011;7638;49.760;8.646;2023-11-22T13:45:38;1.93;;;1.73;;
15077;SDS011;7638;49.760;8.646;2023-11-22T13:48:06;3.73;;;2.60;;
15077;SDS011;7638;49.760;8.646;2023-11-22T13:50:34;2.47;;;2.03;;
15077;SDS011;7638;49.760;8.646;2023-11-22T13:53:01;4.83;;;2.07;;
15077;SDS011;7638;49.760;8.646;2023-11-22T13:55:29;3.73;;;2.37;;
15077;SDS011;7638;49.760;8.646;2023-11-22T13:57:55;3.27;;;2.50;;
15077;SDS011;7638;49.760;8.646;2023-11-22T14:00:22;3.70;;;2.50;;
15077;SDS011;7638;49.760;8.646;2023-11-22T14:02:52;3.33;;;2.50;;
15077;SDS011;7638;49.760;8.646;2023-11-22T14:05:20;2.77;;;2.20;;
15077;SDS011;7638;49.760;8.646;2023-11-22T14:07:46;2.60;;;2.20;;
15077;SDS011;7638;49.760;8.646;2023-11-22T14:10:13;3.17;;;2.57;;
15077;SDS011;7638;49.760;8.646;2023-11-22T14:12:41;5.73;;;2.23;;
15077;SDS011;7638;49.760;8.646;2023-11-22T14:15:07;3.90;;;2.73;;
15077;SDS011;7638;49.760;8.646;2023-11-22T14:17:35;3.47;;;2.23;;
15077;SDS011;7638;49.760;8.646;2023-11-22T14:20:03;2.93;;;2.33;;
15077;SDS011;7638;49.760;8.646;2023-11-22T14:22:30;2.23;;;1.83;;
15077;SDS011;7638;49.760;8.646;2023-11-22T14:24:56;3.30;;;2.60;;
15077;SDS011;7638;49.760;8.646;2023-11-22T14:27:22;2.30;;;2.10;;
15077;SDS011;7638;49.760;8.646;2023-11-22T14:29:49;2.97;;;2.10;;
15077;SDS011;7638;49.760;8.646;2023-11-22T14:32:16;4.37;;;2.30;;
15077;SDS011;7638;49.760;8.646;2023-11-22T14:34:42;4.10;;;2.50;;
15077;SDS011;7638;49.760;8.646;2023-11-22T14:37:11;3.80;;;2.33;;
15077;SDS011;7638;49.760;8.646;2023-11-22T14:39:38;2.40;;;2.20;;
15077;SDS011;7638;49.760;8.646;2023-11-22T14:42:04;3.97;;;2.67;;
15077;SDS011;7638;49.760;8.646;2023-11-22T14:44:36;4.10;;;2.80;;
15077;SDS011;7638;49.760;8.646;2023-11-22T14:47:02;5.73;;;2.60;;
15077;SDS011;7638;49.760;8.646;2023-11-22T14:49:37;4.87;;;3.30;;
15077;SDS011;7638;49.760;8.646;2023-11-22T14:52:03;2.83;;;2.47;;
15077;SDS011;7638;49.760;8.646;2023-11-22T14:54:29;2.43;;;2.20;;
15077;SDS011;7638;49.760;8.646;2023-11-22T14:56:55;7.37;;;2.43;;
15077;SDS011;7638;49.760;8.646;2023-11-22T14:59:26;3.93;;;2.77;;
15077;SDS011;7638;49.760;8.646;2023-11-22T15:01:53;2.73;;;2.53;;
15077;SDS011;7638;49.760;8.646;2023-11-22T15:04:20;2.80;;;2.00;;
15077;SDS011;7638;49.760;8.646;2023-11-22T15:06:46;2.30;;;2.07;;
15077;SDS011;7638;49.760;8.646;2023-11-22T15:09:14;2.50;;;2.30;;